sensor_id;sensor_type;location;lat;lon;timestamp;temperature;humidity
7708;DHT22;3896;48.758;8.888;2023-02-28T00:00:39;0.10;55.70
7708;DHT22;3896;48.758;8.888;2023-02-28T00:03:05;0.10;55.70
7708;DHT22;3896;48.758;8.888;2023-02-28T00:05:30;0.00;55.70
7708;DHT22;3896;48.758;8.888;2023-02-28T00:07:56;-0.10;55.80
7708;DHT22;3896;48.758;8.888;2023-02-28T00:10:25;-0.10;55.90
7708;DHT22;3896;48.758;8.888;2023-02-28T00:12:53;-0.10;55.90
7708;DHT22;3896;48.758;8.888;2023-02-28T00:15:19;-0.20;55.90
7708;DHT22;3896;48.758;8.888;2023-02-28T00:17:45;-0.20;55.90
7708;DHT22;3896;48.758;8.888;2023-02-28T00:20:12;-0.20;56.00
7708;DHT22;3896;48.758;8.888;2023-02-28T00:22:43;-0.30;56.00
7708;DHT22;3896;48.758;8.888;2023-02-28T00:25:10;-0.30;56.10
7708;DHT22;3896;48.758;8.888;2023-02-28T00:27:37;-0.30;56.20
7708;DHT22;3896;48.758;8.888;2023-02-28T00:30:04;-0.40;56.20
7708;DHT22;3896;48.758;8.888;2023-02-28T00:32:30;-0.40;56.30
7708;DHT22;3896;48.758;8.888;2023-02-28T00:34:56;-0.40;56.40
7708;DHT22;3896;48.758;8.888;2023-02-28T00:37:22;-0.50;56.30
7708;DHT22;3896;48.758;8.888;2023-02-28T00:39:47;-0.50;56.40
7708;DHT22;3896;48.758;8.888;2023-02-28T00:42:13;-0.50;56.50
7708;DHT22;3896;48.758;8.888;2023-02-28T00:44:38;-0.60;56.60
7708;DHT22;3896;48.758;8.888;2023-02-28T00:47:04;-0.60;56.70
7708;DHT22;3896;48.758;8.888;2023-02-28T00:49:30;-0.60;57.20
7708;DHT22;3896;48.758;8.888;2023-02-28T00:51:56;-0.60;56.80
7708;DHT22;3896;48.758;8.888;2023-02-28T00:54:22;-0.70;56.80
7708;DHT22;3896;48.758;8.888;2023-02-28T00:56:48;-0.70;56.90
7708;DHT22;3896;48.758;8.888;2023-02-28T00:59:16;-0.70;57.10
7708;DHT22;3896;48.758;8.888;2023-02-28T01:01:42;-0.70;57.20
7708;DHT22;3896;48.758;8.888;2023-02-28T01:04:08;-0.80;57.10
7708;DHT22;3896;48.758;8.888;2023-02-28T01:06:33;-0.80;57.20
7708;DHT22;3896;48.758;8.888;2023-02-28T01:09:00;-0.80;57.30
7708;DHT22;3896;48.758;8.888;2023-02-28T01:11:25;-0.90;57.40
7708;DHT22;3896;48.758;8.888;2023-02-28T01:13:51;-0.90;57.50
7708;DHT22;3896;48.758;8.888;2023-02-28T01:16:17;-0.90;57.50
7708;DHT22;3896;48.758;8.888;2023-02-28T01:18:43;-0.90;57.60
7708;DHT22;3896;48.758;8.888;2023-02-28T01:21:11;-1.00;57.60
7708;DHT22;3896;48.758;8.888;2023-02-28T01:23:37;-1.00;57.80
7708;DHT22;3896;48.758;8.888;2023-02-28T01:26:08;-1.00;57.90
7708;DHT22;3896;48.758;8.888;2023-02-28T01:28:34;-1.00;58.00
7708;DHT22;3896;48.758;8.888;2023-02-28T01:30:59;-1.00;58.10
7708;DHT22;3896;48.758;8.888;2023-02-28T01:33:25;-1.10;58.20
7708;DHT22;3896;48.758;8.888;2023-02-28T01:36:01;-1.10;58.30
7708;DHT22;3896;48.758;8.888;2023-02-28T01:38:26;-1.10;58.40
7708;DHT22;3896;48.758;8.888;2023-02-28T01:40:52;-1.20;58.40
7708;DHT22;3896;48.758;8.888;2023-02-28T01:43:25;-1.20;58.60
7708;DHT22;3896;48.758;8.888;2023-02-28T01:45:52;-1.20;58.70
7708;DHT22;3896;48.758;8.888;2023-02-28T01:48:21;-1.20;58.80
7708;DHT22;3896;48.758;8.888;2023-02-28T01:50:49;-1.30;58.80
7708;DHT22;3896;48.758;8.888;2023-02-28T01:53:19;-1.30;59.00
7708;DHT22;3896;48.758;8.888;2023-02-28T01:55:50;-1.30;59.20
7708;DHT22;3896;48.758;8.888;2023-02-28T01:58:17;-1.40;59.20
7708;DHT22;3896;48.758;8.888;2023-02-28T02:00:43;-1.40;59.30
7708;DHT22;3896;48.758;8.888;2023-02-28T02:03:11;-1.40;59.60
7708;DHT22;3896;48.758;8.888;2023-02-28T02:05:39;-1.40;59.60
7708;DHT22;3896;48.758;8.888;2023-02-28T02:08:07;-1.40;59.70
7708;DHT22;3896;48.758;8.888;2023-02-28T02:10:55;-1.50;59.80
7708;DHT22;3896;48.758;8.888;2023-02-28T02:38:49;-1.70;61.10
7708;DHT22;3896;48.758;8.888;2023-02-28T02:43:56;-1.70;61.50
7708;DHT22;3896;48.758;8.888;2023-02-28T02:48:56;-1.70;61.60
7708;DHT22;3896;48.758;8.888;2023-02-28T02:51:24;-1.70;61.70
7708;DHT22;3896;48.758;8.888;2023-02-28T02:53:54;-1.70;62.00
7708;DHT22;3896;48.758;8.888;2023-02-28T02:56:24;-1.70;62.10
7708;DHT22;3896;48.758;8.888;2023-02-28T02:58:53;-1.70;62.10
7708;DHT22;3896;48.758;8.888;2023-02-28T03:01:23;-1.80;62.40
7708;DHT22;3896;48.758;8.888;2023-02-28T03:04:22;-1.80;62.50
7708;DHT22;3896;48.758;8.888;2023-02-28T03:06:45;-1.80;62.80
7708;DHT22;3896;48.758;8.888;2023-02-28T03:09:10;-1.80;62.90
7708;DHT22;3896;48.758;8.888;2023-02-28T03:11:37;-1.80;62.90
7708;DHT22;3896;48.758;8.888;2023-02-28T03:14:27;-1.80;63.30
7708;DHT22;3896;48.758;8.888;2023-02-28T03:30:24;-1.90;64.20
7708;DHT22;3896;48.758;8.888;2023-02-28T03:33:01;-1.90;64.50
7708;DHT22;3896;48.758;8.888;2023-02-28T03:35:34;-1.90;64.50
7708;DHT22;3896;48.758;8.888;2023-02-28T03:38:22;-1.90;65.00
7708;DHT22;3896;48.758;8.888;2023-02-28T03:41:00;-1.90;65.10
7708;DHT22;3896;48.758;8.888;2023-02-28T03:43:32;-1.90;65.30
7708;DHT22;3896;48.758;8.888;2023-02-28T03:45:59;-1.90;65.40
7708;DHT22;3896;48.758;8.888;2023-02-28T03:48:40;-1.90;65.70
7708;DHT22;3896;48.758;8.888;2023-02-28T03:51:11;-1.90;65.90
7708;DHT22;3896;48.758;8.888;2023-02-28T03:53:42;-1.90;66.00
7708;DHT22;3896;48.758;8.888;2023-02-28T03:56:19;-1.90;66.00
7708;DHT22;3896;48.758;8.888;2023-02-28T04:01:39;-1.90;66.50
7708;DHT22;3896;48.758;8.888;2023-02-28T04:04:07;-1.90;66.40
7708;DHT22;3896;48.758;8.888;2023-02-28T04:06:34;-1.80;66.90
7708;DHT22;3896;48.758;8.888;2023-02-28T04:08:59;-1.80;66.80
7708;DHT22;3896;48.758;8.888;2023-02-28T04:14:01;-1.80;67.00
7708;DHT22;3896;48.758;8.888;2023-02-28T04:16:28;-1.70;67.50
7708;DHT22;3896;48.758;8.888;2023-02-28T04:18:53;-1.70;67.60
7708;DHT22;3896;48.758;8.888;2023-02-28T04:21:19;-1.70;67.60
7708;DHT22;3896;48.758;8.888;2023-02-28T04:23:47;-1.70;68.00
7708;DHT22;3896;48.758;8.888;2023-02-28T04:26:13;-1.70;68.40
7708;DHT22;3896;48.758;8.888;2023-02-28T04:28:38;-1.70;68.60
7708;DHT22;3896;48.758;8.888;2023-02-28T04:31:04;-1.60;69.10
7708;DHT22;3896;48.758;8.888;2023-02-28T04:33:32;-1.60;69.00
7708;DHT22;3896;48.758;8.888;2023-02-28T04:36:06;-1.60;69.20
7708;DHT22;3896;48.758;8.888;2023-02-28T04:38:36;-1.60;69.20
7708;DHT22;3896;48.758;8.888;2023-02-28T04:41:03;-1.60;69.40
7708;DHT22;3896;48.758;8.888;2023-02-28T04:43:30;-1.50;69.60
7708;DHT22;3896;48.758;8.888;2023-02-28T04:45:57;-1.50;69.80
7708;DHT22;3896;48.758;8.888;2023-02-28T04:48:24;-1.50;70.20
7708;DHT22;3896;48.758;8.888;2023-02-28T04:50:50;-1.50;70.10
7708;DHT22;3896;48.758;8.888;2023-02-28T04:53:16;-1.50;70.20
7708;DHT22;3896;48.758;8.888;2023-02-28T04:55:42;-1.50;70.20
7708;DHT22;3896;48.758;8.888;2023-02-28T04:58:07;-1.40;70.40
7708;DHT22;3896;48.758;8.888;2023-02-28T05:00:33;-1.40;70.80
7708;DHT22;3896;48.758;8.888;2023-02-28T05:02:59;-1.40;71.00
7708;DHT22;3896;48.758;8.888;2023-02-28T05:05:24;-1.40;71.10
7708;DHT22;3896;48.758;8.888;2023-02-28T05:07:50;-1.40;71.00
7708;DHT22;3896;48.758;8.888;2023-02-28T05:10:15;-1.30;71.40
7708;DHT22;3896;48.758;8.888;2023-02-28T05:12:41;-1.30;71.40
7708;DHT22;3896;48.758;8.888;2023-02-28T05:15:10;-1.30;71.60
7708;DHT22;3896;48.758;8.888;2023-02-28T05:17:37;-1.30;71.80
7708;DHT22;3896;48.758;8.888;2023-02-28T05:20:03;-1.30;71.80
7708;DHT22;3896;48.758;8.888;2023-02-28T05:22:30;-1.30;72.00
7708;DHT22;3896;48.758;8.888;2023-02-28T05:24:55;-1.30;72.30
7708;DHT22;3896;48.758;8.888;2023-02-28T05:27:21;-1.30;72.80
7708;DHT22;3896;48.758;8.888;2023-02-28T05:29:47;-1.30;73.10
7708;DHT22;3896;48.758;8.888;2023-02-28T05:32:12;-1.20;73.20
7708;DHT22;3896;48.758;8.888;2023-02-28T05:34:39;-1.20;73.00
7708;DHT22;3896;48.758;8.888;2023-02-28T05:37:06;-1.20;73.40
7708;DHT22;3896;48.758;8.888;2023-02-28T05:39:32;-1.20;73.50
7708;DHT22;3896;48.758;8.888;2023-02-28T05:41:58;-1.20;73.50
7708;DHT22;3896;48.758;8.888;2023-02-28T05:44:24;-1.10;73.80
7708;DHT22;3896;48.758;8.888;2023-02-28T05:46:49;-1.10;73.80
7708;DHT22;3896;48.758;8.888;2023-02-28T05:49:15;-1.10;73.90
7708;DHT22;3896;48.758;8.888;2023-02-28T05:51:40;-1.10;74.10
7708;DHT22;3896;48.758;8.888;2023-02-28T05:54:06;-1.10;74.20
7708;DHT22;3896;48.758;8.888;2023-02-28T05:56:32;-1.10;74.10
7708;DHT22;3896;48.758;8.888;2023-02-28T05:58:59;-1.00;75.10
7708;DHT22;3896;48.758;8.888;2023-02-28T06:01:34;-1.00;74.40
7708;DHT22;3896;48.758;8.888;2023-02-28T06:04:02;-1.00;74.70
7708;DHT22;3896;48.758;8.888;2023-02-28T06:06:28;-1.00;74.80
7708;DHT22;3896;48.758;8.888;2023-02-28T06:08:55;-0.90;75.10
7708;DHT22;3896;48.758;8.888;2023-02-28T06:11:21;-0.90;75.30
7708;DHT22;3896;48.758;8.888;2023-02-28T06:13:46;-0.90;75.40
7708;DHT22;3896;48.758;8.888;2023-02-28T06:16:12;-0.90;75.60
7708;DHT22;3896;48.758;8.888;2023-02-28T06:18:38;-0.90;75.30
7708;DHT22;3896;48.758;8.888;2023-02-28T06:21:04;-0.80;75.60
7708;DHT22;3896;48.758;8.888;2023-02-28T06:23:30;-0.80;75.90
7708;DHT22;3896;48.758;8.888;2023-02-28T06:25:56;-0.80;75.90
7708;DHT22;3896;48.758;8.888;2023-02-28T06:28:24;-0.80;76.00
7708;DHT22;3896;48.758;8.888;2023-02-28T06:30:50;-0.80;76.20
7708;DHT22;3896;48.758;8.888;2023-02-28T06:33:16;-0.80;76.20
7708;DHT22;3896;48.758;8.888;2023-02-28T06:35:44;-0.80;76.40
7708;DHT22;3896;48.758;8.888;2023-02-28T06:38:11;-0.80;76.40
7708;DHT22;3896;48.758;8.888;2023-02-28T06:40:37;-0.70;76.50
7708;DHT22;3896;48.758;8.888;2023-02-28T06:43:02;-0.70;76.40
7708;DHT22;3896;48.758;8.888;2023-02-28T06:45:28;-0.70;76.60
7708;DHT22;3896;48.758;8.888;2023-02-28T06:47:55;-0.70;76.70
7708;DHT22;3896;48.758;8.888;2023-02-28T06:50:21;-0.70;76.60
7708;DHT22;3896;48.758;8.888;2023-02-28T06:52:47;-0.70;76.70
7708;DHT22;3896;48.758;8.888;2023-02-28T06:55:12;-0.60;76.90
7708;DHT22;3896;48.758;8.888;2023-02-28T06:57:38;-0.60;76.60
7708;DHT22;3896;48.758;8.888;2023-02-28T07:00:07;-0.60;76.70
7708;DHT22;3896;48.758;8.888;2023-02-28T07:02:34;-0.60;76.70
7708;DHT22;3896;48.758;8.888;2023-02-28T07:05:00;-0.60;76.90
7708;DHT22;3896;48.758;8.888;2023-02-28T07:07:25;-0.60;77.10
7708;DHT22;3896;48.758;8.888;2023-02-28T07:09:51;-0.60;77.20
7708;DHT22;3896;48.758;8.888;2023-02-28T07:12:17;-0.50;77.30
7708;DHT22;3896;48.758;8.888;2023-02-28T07:14:42;-0.50;77.30
7708;DHT22;3896;48.758;8.888;2023-02-28T07:17:09;-0.50;77.50
7708;DHT22;3896;48.758;8.888;2023-02-28T07:19:36;-0.50;77.70
7708;DHT22;3896;48.758;8.888;2023-02-28T07:22:01;-0.50;77.80
7708;DHT22;3896;48.758;8.888;2023-02-28T07:24:28;-0.40;77.60
7708;DHT22;3896;48.758;8.888;2023-02-28T07:26:54;-0.40;77.70
7708;DHT22;3896;48.758;8.888;2023-02-28T07:29:21;-0.40;77.60
7708;DHT22;3896;48.758;8.888;2023-02-28T07:31:47;-0.40;77.70
7708;DHT22;3896;48.758;8.888;2023-02-28T07:34:13;-0.40;77.70
7708;DHT22;3896;48.758;8.888;2023-02-28T07:36:39;-0.30;77.70
7708;DHT22;3896;48.758;8.888;2023-02-28T07:39:04;-0.30;77.50
7708;DHT22;3896;48.758;8.888;2023-02-28T07:41:30;-0.30;77.40
7708;DHT22;3896;48.758;8.888;2023-02-28T07:43:59;-0.30;77.30
7708;DHT22;3896;48.758;8.888;2023-02-28T07:46:25;-0.20;77.00
7708;DHT22;3896;48.758;8.888;2023-02-28T07:48:51;-0.20;76.50
7708;DHT22;3896;48.758;8.888;2023-02-28T07:51:16;-0.20;76.40
7708;DHT22;3896;48.758;8.888;2023-02-28T07:53:42;-0.10;76.40
7708;DHT22;3896;48.758;8.888;2023-02-28T07:56:08;-0.10;76.10
7708;DHT22;3896;48.758;8.888;2023-02-28T07:58:33;-0.10;76.00
7708;DHT22;3896;48.758;8.888;2023-02-28T08:01:07;0.00;76.10
7708;DHT22;3896;48.758;8.888;2023-02-28T08:03:33;0.00;76.10
7708;DHT22;3896;48.758;8.888;2023-02-28T08:05:59;0.00;76.20
7708;DHT22;3896;48.758;8.888;2023-02-28T08:08:24;0.00;76.00
7708;DHT22;3896;48.758;8.888;2023-02-28T08:10:54;0.10;76.20
7708;DHT22;3896;48.758;8.888;2023-02-28T08:13:20;0.10;76.30
7708;DHT22;3896;48.758;8.888;2023-02-28T08:15:45;0.10;76.20
7708;DHT22;3896;48.758;8.888;2023-02-28T08:18:12;0.10;76.20
7708;DHT22;3896;48.758;8.888;2023-02-28T08:20:38;0.10;76.10
7708;DHT22;3896;48.758;8.888;2023-02-28T08:23:03;0.10;75.90
7708;DHT22;3896;48.758;8.888;2023-02-28T08:25:29;0.20;75.90
7708;DHT22;3896;48.758;8.888;2023-02-28T08:27:54;0.20;75.90
7708;DHT22;3896;48.758;8.888;2023-02-28T08:30:20;0.30;76.00
7708;DHT22;3896;48.758;8.888;2023-02-28T08:32:45;0.30;75.90
7708;DHT22;3896;48.758;8.888;2023-02-28T08:35:11;0.30;75.80
7708;DHT22;3896;48.758;8.888;2023-02-28T08:37:36;0.30;75.70
7708;DHT22;3896;48.758;8.888;2023-02-28T08:40:03;0.30;75.60
7708;DHT22;3896;48.758;8.888;2023-02-28T08:42:29;0.30;75.60
7708;DHT22;3896;48.758;8.888;2023-02-28T08:44:55;0.40;75.70
7708;DHT22;3896;48.758;8.888;2023-02-28T08:47:20;0.40;75.70
7708;DHT22;3896;48.758;8.888;2023-02-28T08:49:46;0.40;75.50
7708;DHT22;3896;48.758;8.888;2023-02-28T08:52:11;0.40;75.50
7708;DHT22;3896;48.758;8.888;2023-02-28T08:54:37;0.50;75.40
7708;DHT22;3896;48.758;8.888;2023-02-28T08:57:03;0.50;75.30
7708;DHT22;3896;48.758;8.888;2023-02-28T08:59:29;0.60;75.40
7708;DHT22;3896;48.758;8.888;2023-02-28T09:01:54;0.50;75.20
7708;DHT22;3896;48.758;8.888;2023-02-28T09:04:20;0.60;75.10
7708;DHT22;3896;48.758;8.888;2023-02-28T09:06:46;0.60;75.00
7708;DHT22;3896;48.758;8.888;2023-02-28T09:09:14;0.60;74.90
7708;DHT22;3896;48.758;8.888;2023-02-28T09:11:39;0.60;75.00
7708;DHT22;3896;48.758;8.888;2023-02-28T09:14:05;0.60;74.90
7708;DHT22;3896;48.758;8.888;2023-02-28T09:16:34;0.70;74.80
7708;DHT22;3896;48.758;8.888;2023-02-28T09:19:00;0.70;74.60
7708;DHT22;3896;48.758;8.888;2023-02-28T09:21:26;0.70;74.50
7708;DHT22;3896;48.758;8.888;2023-02-28T09:23:51;0.70;74.50
7708;DHT22;3896;48.758;8.888;2023-02-28T09:26:20;0.70;74.40
7708;DHT22;3896;48.758;8.888;2023-02-28T09:28:46;0.80;74.30
7708;DHT22;3896;48.758;8.888;2023-02-28T09:31:15;0.80;74.20
7708;DHT22;3896;48.758;8.888;2023-02-28T09:33:41;0.80;74.10
7708;DHT22;3896;48.758;8.888;2023-02-28T09:36:06;0.80;74.10
7708;DHT22;3896;48.758;8.888;2023-02-28T09:38:32;0.90;74.20
7708;DHT22;3896;48.758;8.888;2023-02-28T09:41:03;0.90;74.10
7708;DHT22;3896;48.758;8.888;2023-02-28T09:43:39;0.90;74.00
7708;DHT22;3896;48.758;8.888;2023-02-28T09:46:27;1.00;74.00
7708;DHT22;3896;48.758;8.888;2023-02-28T09:48:54;1.00;73.80
7708;DHT22;3896;48.758;8.888;2023-02-28T09:53:54;1.10;73.80
7708;DHT22;3896;48.758;8.888;2023-02-28T09:56:26;1.10;73.70
7708;DHT22;3896;48.758;8.888;2023-02-28T09:59:10;1.10;73.50
7708;DHT22;3896;48.758;8.888;2023-02-28T10:10:36;1.30;73.50
7708;DHT22;3896;48.758;8.888;2023-02-28T10:13:12;1.40;73.30
7708;DHT22;3896;48.758;8.888;2023-02-28T10:15:39;1.40;73.00
7708;DHT22;3896;48.758;8.888;2023-02-28T10:18:11;1.50;72.80
7708;DHT22;3896;48.758;8.888;2023-02-28T10:20:39;1.50;72.50
7708;DHT22;3896;48.758;8.888;2023-02-28T10:23:31;1.50;72.40
7708;DHT22;3896;48.758;8.888;2023-02-28T10:26:09;1.60;73.10
7708;DHT22;3896;48.758;8.888;2023-02-28T10:28:36;1.60;71.80
7708;DHT22;3896;48.758;8.888;2023-02-28T10:31:02;1.70;71.70
7708;DHT22;3896;48.758;8.888;2023-02-28T10:33:31;1.80;71.70
7708;DHT22;3896;48.758;8.888;2023-02-28T10:35:57;1.80;71.40
7708;DHT22;3896;48.758;8.888;2023-02-28T10:38:35;1.90;71.20
7708;DHT22;3896;48.758;8.888;2023-02-28T10:43:30;2.00;70.50
7708;DHT22;3896;48.758;8.888;2023-02-28T10:46:03;2.00;70.90
7708;DHT22;3896;48.758;8.888;2023-02-28T10:48:41;2.10;70.20
7708;DHT22;3896;48.758;8.888;2023-02-28T10:51:19;2.10;70.00
7708;DHT22;3896;48.758;8.888;2023-02-28T10:53:52;2.10;69.80
7708;DHT22;3896;48.758;8.888;2023-02-28T10:56:20;2.20;69.80
7708;DHT22;3896;48.758;8.888;2023-02-28T11:01:45;2.20;69.10
7708;DHT22;3896;48.758;8.888;2023-02-28T11:07:00;2.30;69.10
7708;DHT22;3896;48.758;8.888;2023-02-28T11:09:38;2.30;69.20
7708;DHT22;3896;48.758;8.888;2023-02-28T11:12:07;2.40;69.20
7708;DHT22;3896;48.758;8.888;2023-02-28T11:14:40;2.40;68.90
7708;DHT22;3896;48.758;8.888;2023-02-28T11:17:27;2.50;68.90
7708;DHT22;3896;48.758;8.888;2023-02-28T11:19:56;2.60;68.90
7708;DHT22;3896;48.758;8.888;2023-02-28T11:22:25;2.60;68.70
7708;DHT22;3896;48.758;8.888;2023-02-28T11:24:55;2.70;68.50
7708;DHT22;3896;48.758;8.888;2023-02-28T11:29:57;2.90;68.30
7708;DHT22;3896;48.758;8.888;2023-02-28T11:32:25;2.90;67.70
7708;DHT22;3896;48.758;8.888;2023-02-28T11:37:35;3.10;67.60
7708;DHT22;3896;48.758;8.888;2023-02-28T11:40:01;3.20;67.30
7708;DHT22;3896;48.758;8.888;2023-02-28T11:42:54;3.30;67.10
7708;DHT22;3896;48.758;8.888;2023-02-28T11:45:50;3.40;67.10
7708;DHT22;3896;48.758;8.888;2023-02-28T11:48:41;3.50;67.10
7708;DHT22;3896;48.758;8.888;2023-02-28T11:51:18;3.60;66.90
7708;DHT22;3896;48.758;8.888;2023-02-28T11:54:13;3.80;66.90
7708;DHT22;3896;48.758;8.888;2023-02-28T11:56:49;3.90;66.60
7708;DHT22;3896;48.758;8.888;2023-02-28T12:02:26;4.30;66.70
7708;DHT22;3896;48.758;8.888;2023-02-28T12:07:53;4.70;66.00
7708;DHT22;3896;48.758;8.888;2023-02-28T12:10:27;4.80;65.30
7708;DHT22;3896;48.758;8.888;2023-02-28T12:13:00;5.00;65.30
7708;DHT22;3896;48.758;8.888;2023-02-28T12:20:47;5.30;63.60
7708;DHT22;3896;48.758;8.888;2023-02-28T12:26:40;5.40;62.50
7708;DHT22;3896;48.758;8.888;2023-02-28T12:29:25;5.50;62.60
7708;DHT22;3896;48.758;8.888;2023-02-28T12:32:04;5.50;62.30
7708;DHT22;3896;48.758;8.888;2023-02-28T12:34:38;5.60;62.10
7708;DHT22;3896;48.758;8.888;2023-02-28T12:37:09;5.70;61.80
7708;DHT22;3896;48.758;8.888;2023-02-28T12:39:44;5.80;61.30
7708;DHT22;3896;48.758;8.888;2023-02-28T12:42:14;5.90;60.80
7708;DHT22;3896;48.758;8.888;2023-02-28T12:47:16;6.20;60.60
7708;DHT22;3896;48.758;8.888;2023-02-28T12:58:43;6.90;59.00
7708;DHT22;3896;48.758;8.888;2023-02-28T13:09:21;7.80;58.50
7708;DHT22;3896;48.758;8.888;2023-02-28T13:11:48;8.00;57.80
7708;DHT22;3896;48.758;8.888;2023-02-28T13:14:35;8.20;57.80
7708;DHT22;3896;48.758;8.888;2023-02-28T13:24:56;9.20;56.00
7708;DHT22;3896;48.758;8.888;2023-02-28T13:27:35;9.40;54.90
7708;DHT22;3896;48.758;8.888;2023-02-28T13:33:33;9.80;53.00
7708;DHT22;3896;48.758;8.888;2023-02-28T13:38:54;10.00;51.60
7708;DHT22;3896;48.758;8.888;2023-02-28T13:46:35;10.40;50.70
7708;DHT22;3896;48.758;8.888;2023-02-28T13:51:50;10.50;48.50
7708;DHT22;3896;48.758;8.888;2023-02-28T13:54:40;10.60;49.20
7708;DHT22;3896;48.758;8.888;2023-02-28T14:05:24;10.80;47.80
7708;DHT22;3896;48.758;8.888;2023-02-28T14:07:56;10.90;48.20
7708;DHT22;3896;48.758;8.888;2023-02-28T14:10:30;10.90;47.80
7708;DHT22;3896;48.758;8.888;2023-02-28T14:15:43;11.20;47.10
7708;DHT22;3896;48.758;8.888;2023-02-28T14:18:29;11.30;47.10
7708;DHT22;3896;48.758;8.888;2023-02-28T14:21:20;11.40;46.50
7708;DHT22;3896;48.758;8.888;2023-02-28T14:32:40;11.80;45.20
7708;DHT22;3896;48.758;8.888;2023-02-28T14:35:16;11.90;44.70
7708;DHT22;3896;48.758;8.888;2023-02-28T14:37:45;12.00;44.50
7708;DHT22;3896;48.758;8.888;2023-02-28T14:40:17;12.10;44.80
7708;DHT22;3896;48.758;8.888;2023-02-28T14:43:04;12.20;44.60
7708;DHT22;3896;48.758;8.888;2023-02-28T14:45:32;12.30;44.20
7708;DHT22;3896;48.758;8.888;2023-02-28T14:47:59;12.30;44.00
7708;DHT22;3896;48.758;8.888;2023-02-28T14:50:36;12.40;44.10
7708;DHT22;3896;48.758;8.888;2023-02-28T14:53:03;12.40;44.40
7708;DHT22;3896;48.758;8.888;2023-02-28T14:55:34;12.50;43.30
7708;DHT22;3896;48.758;8.888;2023-02-28T14:58:05;12.50;42.80
7708;DHT22;3896;48.758;8.888;2023-02-28T15:00:36;12.40;42.50
7708;DHT22;3896;48.758;8.888;2023-02-28T15:03:36;12.40;42.50
7708;DHT22;3896;48.758;8.888;2023-02-28T15:06:04;12.40;43.10
7708;DHT22;3896;48.758;8.888;2023-02-28T15:08:31;12.40;42.80
7708;DHT22;3896;48.758;8.888;2023-02-28T15:11:02;12.40;43.00
7708;DHT22;3896;48.758;8.888;2023-02-28T15:13:47;12.30;42.60
7708;DHT22;3896;48.758;8.888;2023-02-28T15:21:17;12.10;42.40
7708;DHT22;3896;48.758;8.888;2023-02-28T15:23:46;12.00;42.50
7708;DHT22;3896;48.758;8.888;2023-02-28T15:26:15;12.00;42.90
7708;DHT22;3896;48.758;8.888;2023-02-28T15:28:42;11.90;42.50
7708;DHT22;3896;48.758;8.888;2023-02-28T15:31:26;11.80;42.70
7708;DHT22;3896;48.758;8.888;2023-02-28T15:34:04;11.70;42.80
7708;DHT22;3896;48.758;8.888;2023-02-28T15:36:32;11.70;42.70
7708;DHT22;3896;48.758;8.888;2023-02-28T15:38:59;11.60;42.40
7708;DHT22;3896;48.758;8.888;2023-02-28T15:41:28;11.50;42.80
7708;DHT22;3896;48.758;8.888;2023-02-28T15:46:59;11.30;42.70
7708;DHT22;3896;48.758;8.888;2023-02-28T15:49:27;11.20;43.00
7708;DHT22;3896;48.758;8.888;2023-02-28T15:51:56;11.20;43.10
7708;DHT22;3896;48.758;8.888;2023-02-28T15:54:28;11.10;43.20
7708;DHT22;3896;48.758;8.888;2023-02-28T15:57:11;11.10;43.50
7708;DHT22;3896;48.758;8.888;2023-02-28T15:59:38;11.00;43.50
7708;DHT22;3896;48.758;8.888;2023-02-28T16:04:35;10.80;43.50
7708;DHT22;3896;48.758;8.888;2023-02-28T16:07:04;10.70;43.70
7708;DHT22;3896;48.758;8.888;2023-02-28T16:09:30;10.70;43.80
7708;DHT22;3896;48.758;8.888;2023-02-28T16:12:00;10.60;43.90
7708;DHT22;3896;48.758;8.888;2023-02-28T16:14:31;10.50;43.90
7708;DHT22;3896;48.758;8.888;2023-02-28T16:17:03;10.40;44.00
7708;DHT22;3896;48.758;8.888;2023-02-28T16:19:29;10.30;44.20
7708;DHT22;3896;48.758;8.888;2023-02-28T16:21:54;10.20;44.10
7708;DHT22;3896;48.758;8.888;2023-02-28T16:24:20;10.10;44.30
7708;DHT22;3896;48.758;8.888;2023-02-28T16:26:47;10.00;44.30
7708;DHT22;3896;48.758;8.888;2023-02-28T16:29:25;9.90;45.40
7708;DHT22;3896;48.758;8.888;2023-02-28T16:31:52;9.80;45.70
7708;DHT22;3896;48.758;8.888;2023-02-28T16:34:19;9.70;45.60
7708;DHT22;3896;48.758;8.888;2023-02-28T16:36:47;9.60;45.70
7708;DHT22;3896;48.758;8.888;2023-02-28T16:39:13;9.40;46.00
7708;DHT22;3896;48.758;8.888;2023-02-28T16:41:42;9.40;46.30
7708;DHT22;3896;48.758;8.888;2023-02-28T16:44:13;9.20;46.40
7708;DHT22;3896;48.758;8.888;2023-02-28T16:46:39;9.10;46.60
7708;DHT22;3896;48.758;8.888;2023-02-28T16:49:05;9.00;46.50
7708;DHT22;3896;48.758;8.888;2023-02-28T16:51:35;8.90;46.80
7708;DHT22;3896;48.758;8.888;2023-02-28T16:54:01;8.80;46.70
7708;DHT22;3896;48.758;8.888;2023-02-28T16:56:26;8.70;47.00
7708;DHT22;3896;48.758;8.888;2023-02-28T16:58:56;8.60;47.10
7708;DHT22;3896;48.758;8.888;2023-02-28T17:01:24;8.50;47.30
7708;DHT22;3896;48.758;8.888;2023-02-28T17:03:50;8.40;47.50
7708;DHT22;3896;48.758;8.888;2023-02-28T17:06:22;8.30;47.60
7708;DHT22;3896;48.758;8.888;2023-02-28T17:08:49;8.20;47.70
7708;DHT22;3896;48.758;8.888;2023-02-28T17:11:15;8.10;47.80
7708;DHT22;3896;48.758;8.888;2023-02-28T17:13:41;8.00;47.90
7708;DHT22;3896;48.758;8.888;2023-02-28T17:18:45;7.70;48.40
7708;DHT22;3896;48.758;8.888;2023-02-28T17:21:15;7.70;48.80
7708;DHT22;3896;48.758;8.888;2023-02-28T17:23:41;7.60;48.90
7708;DHT22;3896;48.758;8.888;2023-02-28T17:26:09;7.50;49.00
7708;DHT22;3896;48.758;8.888;2023-02-28T17:28:35;7.40;49.10
7708;DHT22;3896;48.758;8.888;2023-02-28T17:31:00;7.30;49.30
7708;DHT22;3896;48.758;8.888;2023-02-28T17:33:26;7.20;49.50
7708;DHT22;3896;48.758;8.888;2023-02-28T17:35:51;7.10;49.60
7708;DHT22;3896;48.758;8.888;2023-02-28T17:38:18;7.00;49.70
7708;DHT22;3896;48.758;8.888;2023-02-28T17:40:44;6.90;49.80
7708;DHT22;3896;48.758;8.888;2023-02-28T17:43:10;6.80;50.00
7708;DHT22;3896;48.758;8.888;2023-02-28T17:45:36;6.80;50.20
7708;DHT22;3896;48.758;8.888;2023-02-28T17:48:02;6.60;50.30
7708;DHT22;3896;48.758;8.888;2023-02-28T17:50:28;6.60;50.40
7708;DHT22;3896;48.758;8.888;2023-02-28T17:52:53;6.50;50.50
7708;DHT22;3896;48.758;8.888;2023-02-28T17:55:19;6.40;50.60
7708;DHT22;3896;48.758;8.888;2023-02-28T17:57:45;6.30;50.80
7708;DHT22;3896;48.758;8.888;2023-02-28T18:00:12;6.20;51.00
7708;DHT22;3896;48.758;8.888;2023-02-28T18:02:38;6.10;51.10
7708;DHT22;3896;48.758;8.888;2023-02-28T18:05:04;6.00;51.20
7708;DHT22;3896;48.758;8.888;2023-02-28T18:07:30;5.90;51.30
7708;DHT22;3896;48.758;8.888;2023-02-28T18:09:56;5.80;51.50
7708;DHT22;3896;48.758;8.888;2023-02-28T18:12:21;5.70;51.70
7708;DHT22;3896;48.758;8.888;2023-02-28T18:14:47;5.50;51.90
7708;DHT22;3896;48.758;8.888;2023-02-28T18:17:13;5.40;52.00
7708;DHT22;3896;48.758;8.888;2023-02-28T18:19:38;5.30;52.80
7708;DHT22;3896;48.758;8.888;2023-02-28T18:22:04;5.20;52.40
7708;DHT22;3896;48.758;8.888;2023-02-28T18:24:32;5.10;52.50
7708;DHT22;3896;48.758;8.888;2023-02-28T18:26:58;5.00;52.70
7708;DHT22;3896;48.758;8.888;2023-02-28T18:29:26;4.90;52.90
7708;DHT22;3896;48.758;8.888;2023-02-28T18:31:53;4.80;53.00
7708;DHT22;3896;48.758;8.888;2023-02-28T18:34:19;4.70;53.20
7708;DHT22;3896;48.758;8.888;2023-02-28T18:36:46;4.60;53.30
7708;DHT22;3896;48.758;8.888;2023-02-28T18:39:13;4.50;53.50
7708;DHT22;3896;48.758;8.888;2023-02-28T18:41:39;4.40;53.70
7708;DHT22;3896;48.758;8.888;2023-02-28T18:44:05;4.30;53.90
7708;DHT22;3896;48.758;8.888;2023-02-28T18:46:31;4.20;54.10
7708;DHT22;3896;48.758;8.888;2023-02-28T18:48:56;4.10;54.20
7708;DHT22;3896;48.758;8.888;2023-02-28T18:51:24;4.00;54.30
7708;DHT22;3896;48.758;8.888;2023-02-28T18:53:50;3.90;54.40
7708;DHT22;3896;48.758;8.888;2023-02-28T18:56:18;3.80;54.60
7708;DHT22;3896;48.758;8.888;2023-02-28T18:58:44;3.70;54.80
7708;DHT22;3896;48.758;8.888;2023-02-28T19:01:15;3.60;54.90
7708;DHT22;3896;48.758;8.888;2023-02-28T19:03:43;3.50;55.00